• Join FlightAware (Why Join?)
  • Login
  • US Flag 
01:40PM EDT


 

Airport Tracker/Info


-or-


 

Live Flight TrackerFlight Track Log ✈ N143DE ✈ 27-Jun-2013 ✈ KCVG - KRYY

Flight Track Log - Related Links

Times and Time Zones

All times are in EDT time to prevent confusion due to time zone crossing. See the N143DE flight status page for this flight to view local times or setup timezone preferences in your user account.

Time Position Orientation Groundspeed Altitude Reporting Facility
EDT Latitude Longitude Course Direction KTS MPH feet Rate Location/Type
08:25AM 39.0167 -84.6833 180° South 166 191 3,500  Level Cincinnati TRACON
08:26AM 38.9667 -84.6833 180° South 195 224 5,400 2,100 Climbing Cincinnati TRACON
08:27AM 38.9167 -84.6667 165° South 189 217 7,700 2,040 Climbing Cincinnati TRACON
08:28AM 38.8522 -84.6494 168° South 194 223 9,900 1,680 Climbing Indianapolis Center
08:29AM 38.7983 -84.6581 187° South 194 223 11,500 1,260 Climbing Indianapolis Center
08:30AM 38.7400 -84.6575 180° South 223 257 12,600 1,080 Climbing Indianapolis Center
08:31AM 38.6783 -84.6292 160° South 236 272 13,800 1,020 Climbing Indianapolis Center
08:32AM 38.6094 -84.5950 159° South 247 284 14,700 840 Climbing Indianapolis Center
08:34AM 38.5422 -84.5633 160° South 254 292 15,600 780 Climbing Indianapolis Center
08:35AM 38.4639 -84.5156 154° Southeast 265 305 16,400 600 Climbing Indianapolis Center
08:36AM 38.3939 -84.4797 158° South 267 307 16,900 480 Climbing Indianapolis Center
08:37AM 38.3147 -84.4889 185° South 276 318 17,400 480 Climbing Indianapolis Center
08:38AM 38.2428 -84.4972 185° South 265 305 17,900 480 Climbing Indianapolis Center
08:39AM 38.1669 -84.4914 177° South 274 315 18,500 480 Climbing Indianapolis Center
08:40AM 38.0917 -84.4831 175° South 274 315 18,900 420 Climbing Indianapolis Center
08:41AM 38.0039 -84.4753 176° South 272 313 19,400 360 Climbing Indianapolis Center
08:42AM 37.9261 -84.4681 176° South 277 319 19,700 240 Climbing Indianapolis Center
08:43AM 37.8511 -84.4439 166° South 277 319 20,000 120 Climbing Indianapolis Center
08:44AM 37.7733 -84.4200 166° South 284 327 20,000  Level Indianapolis Center
08:45AM 37.6942 -84.3950 166° South 291 335 20,000  Level Indianapolis Center
08:46AM 37.6144 -84.3719 167° South 294 338 20,000  Level Indianapolis Center
08:47AM 37.5214 -84.3447 167° South 293 337 20,000  Level Indianapolis Center
08:48AM 37.4408 -84.3228 168° South 296 341 20,000  Level Indianapolis Center
08:49AM 37.3614 -84.3011 168° South 292 336 20,000  Level Indianapolis Center
08:50AM 37.2817 -84.2792 168° South 293 337 20,000  Level Indianapolis Center
08:51AM 37.2017 -84.2564 167° South 294 338 20,000  Level Indianapolis Center
08:52AM 37.1214 -84.2333 167° South 294 338 20,000  Level Indianapolis Center
08:53AM 37.0286 -84.2069 167° South 293 337 20,000  Level Indianapolis Center
08:54AM 36.9475 -84.1842 167° South 297 342 20,000  Level Indianapolis Center
08:55AM 36.8683 -84.1628 168° South 291 335 20,000  Level Indianapolis Center
08:56AM 36.7881 -84.1406 167° South 293 337 20,000  Level Indianapolis Center
08:57AM 36.7094 -84.1181 167° South 291 335 20,000  Level Indianapolis Center
08:58AM 36.6292 -84.0958 167° South 295 339 20,000  Level Indianapolis Center
08:59AM 36.5364 -84.0689 167° South 291 335 20,000  Level Indianapolis Center
09:00AM 36.4569 -84.0486 168° South 291 335 20,000  Level Indianapolis Center
09:01AM 36.3764 -84.0269 168° South 295 339 20,000  Level Indianapolis Center
09:02AM 36.2969 -84.0044 167° South 293 337 20,000  Level Indianapolis Center
09:03AM 36.2178 -83.9822 167° South 291 335 20,000  Level Indianapolis Center
09:04AM 36.1383 -83.9608 168° South 291 335 20,000  Level Indianapolis Center
09:05AM 36.0569 -83.9386 168° South 295 339 20,000  Level Indianapolis Center
09:06AM 35.9728 -83.9181 169° South 294 338 20,000  Level Atlanta Center
09:07AM 35.8933 -83.8978 168° South 294 338 20,000  Level Atlanta Center
09:08AM 35.8119 -83.8800 170° South 294 338 20,000  Level Atlanta Center
09:09AM 35.7328 -83.8622 170° South 294 338 20,000  Level Atlanta Center
09:10AM 35.6514 -83.8444 170° South 294 338 20,000  Level Atlanta Center
09:11AM 35.5722 -83.8525 185° South 288 331 20,000  Level Atlanta Center
09:12AM 35.4928 -83.8653 187° South 288 331 20,000  Level Atlanta Center
09:13AM 35.4156 -83.8731 185° South 288 331 20,000  Level Atlanta Center
09:14AM 35.3342 -83.8833 186° South 293 337 20,000  Level Atlanta Center
09:15AM 35.2572 -83.8939 186° South 293 337 20,000  Level Atlanta Center
09:16AM 35.1778 -83.9042 186° South 293 337 20,000 -120 Level Atlanta Center
09:17AM 35.0986 -83.9119 185° South 293 337 19,800 -900 Descending Atlanta Center
09:18AM 35.0108 -83.9222 185° South 298 343 18,300 -1,500 Descending Atlanta Center
09:19AM 34.9211 -83.9350 187° South 316 364 16,900 -1,500 Descending Atlanta Center
09:20AM 34.8336 -83.9453 186° South 316 364 15,400 -1,500 Descending Atlanta Center
09:21AM 34.7500 -83.9553 186° South 316 364 13,900 -1,560 Descending Atlanta Center
09:22AM 34.6686 -83.9631 184° South 310 357 12,300 -1,560 Descending Atlanta Center
09:23AM 34.5831 -83.9706 184° South 310 357 10,800 -1,440 Descending Atlanta Center
09:24AM 34.5017 -83.9833 187° South 305 351 9,500 -900 Descending Atlanta Center
09:25AM 34.4244 -84.0111 197° South 283 326 9,100 -240 Descending Atlanta Center
09:26AM 34.3661 -84.0489 208° Southwest 252 290 9,100  Level Atlanta Center
09:27AM 34.3036 -84.0792 202° Southwest 240 276 9,100  Level Atlanta Center
09:28AM 34.2408 -84.1142 205° Southwest 240 276 9,100 -300 Level Atlanta Center
09:29AM 34.2011 -84.1769 233° Southwest 240 276 8,600 -960 Descending Atlanta Center
09:30AM 34.1656 -84.2397 236° Southwest 235 270 7,200 -1,500 Descending Atlanta Center
09:31AM 34.1508 -84.3022 254° West 216 249 5,700 -1,560 Descending Atlanta Center
09:32AM 34.1467 -84.3700 266° West 204 235 4,100 -1,080 Descending Atlanta Center
09:33AM 34.1089 -84.3975 211° Southwest 158 182 3,600 -540 Descending Atlanta Center
09:34AM 34.0567 -84.3897 173° South 168 193 3,100 -240 Descending Atlanta Center
09:36AM 34.0167 -84.4167 209° Southwest 130 150 3,100 -120 Level Atlanta TRACON
09:37AM 34.0167 -84.4500 270° West 121 139 2,900 -360 Descending Atlanta TRACON
09:38AM 34.0167 -84.5000 270° West 109 125 2,400 -480 Descending Atlanta TRACON
09:39AM 34.0167 -84.5333 270° West 102 117 1,900 -540 Descending Atlanta TRACON
09:40AM 34.0167 -84.5667 270° West 92 106 1,400 -600 Descending Atlanta TRACON
09:42AM 34.0000 -84.5833 248° West  Level FlightAware Approximate